createdAt,value
2018-11-21T00:05:59.000Z,1004.998
2018-11-21T00:15:59.000Z,1005.192
2018-11-21T00:25:59.000Z,1005.258
2018-11-21T00:35:59.000Z,1005.132
2018-11-21T00:45:59.000Z,1005.074
2018-11-21T00:55:59.000Z,1004.998
2018-11-21T01:05:59.000Z,1005.024
2018-11-21T01:15:59.000Z,1005.118
2018-11-21T01:25:59.000Z,1005.311
2018-11-21T01:35:59.000Z,1005.522
2018-11-21T01:45:59.000Z,1005.534
2018-11-21T01:55:59.000Z,1005.623
2018-11-21T02:05:59.000Z,1005.602
2018-11-21T02:15:59.000Z,1005.624
2018-11-21T02:25:59.000Z,1005.767
2018-11-21T02:35:59.000Z,1005.855
2018-11-21T02:45:59.000Z,1005.888
2018-11-21T02:55:59.000Z,1005.793
2018-11-21T03:05:59.000Z,1005.865
2018-11-21T03:15:59.000Z,1005.78
2018-11-21T03:25:59.000Z,1005.725
2018-11-21T03:35:59.000Z,1005.919
2018-11-21T03:46:00.000Z,1006.079
2018-11-21T03:55:59.000Z,1006.308
2018-11-21T04:05:59.000Z,1006.482
2018-11-21T04:15:59.000Z,1006.356
2018-11-21T04:25:59.000Z,1006.584
2018-11-21T04:35:59.000Z,1006.737
2018-11-21T04:45:59.000Z,1007.108
2018-11-21T04:55:59.000Z,1007.043
2018-11-21T05:06:00.000Z,1007.088
2018-11-21T05:15:59.000Z,1007.239
2018-11-21T05:26:00.000Z,1007.319
2018-11-21T05:36:00.000Z,1007.316
2018-11-21T05:46:00.000Z,1007.353
2018-11-21T05:56:00.000Z,1007.465
2018-11-21T06:06:00.000Z,1007.63
2018-11-21T06:16:00.000Z,1007.73
2018-11-21T06:26:00.000Z,1007.828
2018-11-21T06:36:00.000Z,1008.007
2018-11-21T06:46:00.000Z,1008.083
2018-11-21T06:56:00.000Z,1008.269
2018-11-21T07:06:00.000Z,1008.313
2018-11-21T07:16:00.000Z,1008.351
2018-11-21T07:26:00.000Z,1008.311
2018-11-21T07:36:00.000Z,1008.47
2018-11-21T07:46:00.000Z,1008.72
2018-11-21T07:56:00.000Z,1008.9
2018-11-21T08:06:00.000Z,1009.006
2018-11-21T08:16:00.000Z,1009
2018-11-21T08:26:00.000Z,1009.157
2018-11-21T08:36:00.000Z,1009.26
2018-11-21T08:46:00.000Z,1009.321
2018-11-21T08:56:00.000Z,1009.242
2018-11-21T09:06:00.000Z,1009.366
2018-11-21T09:16:00.000Z,1009.48
2018-11-21T09:26:00.000Z,1009.67
2018-11-21T09:36:00.000Z,1009.644
2018-11-21T09:46:00.000Z,1009.58
2018-11-21T09:56:00.000Z,1009.826
2018-11-21T10:06:00.000Z,1009.875
2018-11-21T10:16:00.000Z,1010.018
2018-11-21T10:26:00.000Z,1010.037
2018-11-21T10:36:00.000Z,1009.982
2018-11-21T10:46:00.000Z,1010.092
2018-11-21T10:56:00.000Z,1010.071
2018-11-21T11:06:00.000Z,1010.002
2018-11-21T11:16:00.000Z,1009.971
2018-11-21T11:26:00.000Z,1010.162
2018-11-21T11:36:00.000Z,1010.255
2018-11-21T11:46:00.000Z,1010.454
2018-11-21T11:56:00.000Z,1010.438
2018-11-21T12:06:00.000Z,1010.309
2018-11-21T12:16:00.000Z,1010.232
2018-11-21T12:26:00.000Z,1010.317
2018-11-21T12:36:01.000Z,1010.355
2018-11-21T12:46:00.000Z,1010.48
2018-11-21T12:56:00.000Z,1010.336
2018-11-21T13:06:00.000Z,1010.37
2018-11-21T13:16:01.000Z,1010.476
2018-11-21T13:26:00.000Z,1010.438
2018-11-21T13:36:01.000Z,1010.446
2018-11-21T13:46:01.000Z,1010.567
2018-11-21T13:56:01.000Z,1010.568
2018-11-21T14:06:01.000Z,1010.728
2018-11-21T14:16:01.000Z,1010.334
2018-11-21T14:26:01.000Z,1010.35
2018-11-21T14:36:01.000Z,1010.627
2018-11-21T14:46:01.000Z,1010.909
2018-11-21T14:56:01.000Z,1011.1
2018-11-21T15:06:01.000Z,1011.114
2018-11-21T15:16:01.000Z,1011.164
2018-11-21T15:26:01.000Z,1011.282
2018-11-21T15:36:01.000Z,1011.251
2018-11-21T15:56:01.000Z,1011.192
2018-11-21T16:06:01.000Z,1011.453
2018-11-21T16:16:01.000Z,1011.476
2018-11-21T16:26:01.000Z,1011.536
2018-11-21T16:36:01.000Z,1011.55
2018-11-21T16:46:01.000Z,1011.641
2018-11-21T16:56:01.000Z,1011.689
2018-11-21T17:06:01.000Z,1011.671
2018-11-21T17:16:01.000Z,1011.808
2018-11-21T17:26:01.000Z,1011.846
2018-11-21T17:36:01.000Z,1011.974
2018-11-21T17:46:01.000Z,1012.081
2018-11-21T17:56:01.000Z,1012.043
2018-11-21T18:06:01.000Z,1011.944
2018-11-21T18:16:01.000Z,1012.021
2018-11-21T18:26:01.000Z,1012.062
2018-11-21T18:36:01.000Z,1012.185
2018-11-21T18:46:01.000Z,1012.23
2018-11-21T18:56:01.000Z,1012.239
2018-11-21T19:06:01.000Z,1012.31
2018-11-21T19:16:01.000Z,1012.34
2018-11-21T19:26:02.000Z,1012.478
2018-11-21T19:36:02.000Z,1012.611
2018-11-21T19:46:01.000Z,1012.746
2018-11-21T19:56:01.000Z,1012.709
2018-11-21T20:06:05.000Z,1012.752
2018-11-21T20:16:01.000Z,1012.735
2018-11-21T20:36:01.000Z,1012.728
2018-11-21T20:46:01.000Z,1012.725
2018-11-21T20:56:01.000Z,1012.803
2018-11-21T21:06:01.000Z,1012.79
2018-11-21T21:16:01.000Z,1012.724
2018-11-21T21:26:01.000Z,1012.754
2018-11-21T21:36:04.000Z,1012.698
2018-11-21T21:46:01.000Z,1012.781
2018-11-21T21:56:02.000Z,1012.96
2018-11-21T22:06:02.000Z,1012.983
2018-11-21T22:16:02.000Z,1012.902
2018-11-21T22:26:02.000Z,1012.908
2018-11-21T22:36:02.000Z,1012.922
2018-11-21T22:46:02.000Z,1012.881
2018-11-21T22:56:02.000Z,1012.914
2018-11-21T23:06:02.000Z,1012.987
2018-11-21T23:16:02.000Z,1013.034
2018-11-21T23:36:02.000Z,1012.979
2018-11-21T23:46:02.000Z,1012.958
2018-11-21T23:56:04.000Z,1012.984
